Japan Airlines Virtual Airport Information Service

Ishigaki New Airport

ICAO: ROIG Country: Japan
Latitude: 24.3964 Longitude: 124.245
Latest Arrival : JTA617 (ROAH-ROIG) Latest Departure : JTA600 (ROIG-ROAH)


WX CaptureLIVE
Data provided by noaa.gov | Fetched at 07:37:32

METAR : ROIG 090700Z 20019KT 9999 FEW018 SCT050 BKN/// 32/28 Q1003

TAF : ROIG 090507Z 0906/1012 20016KT 9999 FEW015 BKN025


Runway Data for ROIG
Data provided by openaviationdata.com

Runway ID Mag Var Hdg Length Elevation Surface ILS Freq ILS Id ILS Slope
4 -4 46° 4930 ft 86 ft Asphalt -- -- --
22 -4 226° 4930 ft 86 ft Asphalt -- -- --

Ishigaki New Airport, Japan
Use only for reference purposes



Not for navigational purposes.